• Join FlightAware (Why Join?)
  • Login
  • US Flag 
Trick or treat! (Boo!!) 
03:51AM EDT


 

Airport Tracker/Info


-or-


 

Live Flight TrackerFlight Track Log ✈ LXJ437 ✈ 13-Jun-2013 ✈ KEWB - CYOW

Flight Track Log - Related Links

Times and Time Zones

All times are in EDT time to prevent confusion due to time zone crossing. See the LXJ437 flight status page for this flight to view local times or setup timezone preferences in your user account.

Time Position Orientation Groundspeed Altitude Reporting Facility
EDT Latitude Longitude Course Direction KTS MPH feet Rate Location/Type
09:09AM 41.6653 -70.9422 255° West 150 173 800  Level Boston Center
09:11AM 41.6417 -71.0594 255° West 218 251 7,800 3,000 Climbing Boston Center
09:12AM 41.6450 -71.1511 273° West 242 278 10,000 1,740 Climbing Boston Center
09:13AM 41.6317 -71.2792 262° West 310 357 11,300 2,700 Climbing Boston Center
09:14AM 41.6033 -71.3794 249° West 322 371 15,500 4,200 Climbing Boston Center
09:15AM 41.5836 -71.5047 258° West 333 383 19,800 3,600 Climbing Boston Center
09:16AM 41.6306 -71.6125 300° West 303 349 22,800 2,580 Climbing Boston Center
09:17AM 41.6894 -71.7228 306° West 330 380 25,000 2,520 Climbing Boston Center
09:18AM 41.7464 -71.8364 304° West 352 405 27,900 2,520 Climbing Boston Center
09:19AM 41.8033 -71.9528 303° West 364 419 30,100 2,040 Climbing Boston Center
09:20AM 41.8642 -72.0722 304° West 374 430 32,000 1,860 Climbing Boston Center
09:21AM 41.9208 -72.1917 303° West 374 430 33,900 960 Climbing Boston Center
09:22AM 41.9814 -72.3117 304° West 386 444 34,000  Climbing Boston Center
09:23AM 42.0731 -72.4008 324° Northwest 387 445 34,000  Level Boston Center
09:24AM 42.1817 -72.4569 339° North 400 460 34,000  Level Boston Center
09:25AM 42.3086 -72.5328 336° Northwest 406 467 34,000  Level Boston Center
09:26AM 42.4044 -72.5864 338° Northwest 411 473 34,000  Level Boston Center
09:27AM 42.5106 -72.6542 335° Northwest 411 473 34,000  Level Boston Center
09:28AM 42.6147 -72.7167 336° Northwest 416 479 34,000  Level Boston Center
09:29AM 42.7189 -72.7736 338° Northwest 416 479 34,000  Level Boston Center
09:30AM 42.8206 -72.8392 335° Northwest 416 479 34,000  Level Boston Center
09:31AM 42.9058 -72.9106 328° Northwest 423 487 34,000  Level Boston Center
09:32AM 43.0325 -72.9967 334° Northwest 423 487 34,000  Level Boston Center
09:33AM 43.1428 -73.0689 334° Northwest 428 493 34,000  Level Boston Center
09:34AM 43.2528 -73.1414 334° Northwest 433 498 34,000  Level Boston Center
09:35AM 43.3628 -73.2139 334° Northwest 433 498 34,000  Level Boston Center
09:36AM 43.4706 -73.2869 334° Northwest 433 498 34,000  Level Boston Center
09:37AM 43.6011 -73.3747 334° Northwest 428 493 34,000 -240 Level Boston Center
09:38AM 43.7400 -73.4689 334° Northwest 428 493 33,600 -480 Descending Boston Center
09:39AM 43.8519 -73.5428 335° Northwest 434 499 33,100 -600 Descending Boston Center
09:40AM 43.9428 -73.6050 334° Northwest 440 506 32,400 -1,500 Descending Boston Center
09:41AM 44.0711 -73.6911 334° Northwest 440 506 30,200 -2,100 Descending Boston Center
09:42AM 44.1744 -73.7628 334° Northwest 430 495 28,200 -2,040 Descending Boston Center
09:43AM 44.2697 -73.8258 335° Northwest 392 451 26,200 -2,040 Descending Boston Center
09:44AM 44.3606 -73.8889 334° Northwest 393 452 24,200 -1,860 Descending Boston Center
09:45AM 44.4617 -73.9583 334° Northwest 398 458 22,500 -1,140 Descending Boston Center
09:46AM 44.5608 -74.0281 333° Northwest 398 458 22,000 -300 Descending Boston Center
09:47AM 44.6639 -74.0978 334° Northwest 405 466 22,000  Level Boston Center
09:48AM 44.7458 -74.2053 317° Northwest 376 433 22,000  Level Boston Center
09:49AM 44.7894 -74.3414 294° West 376 433 22,000  Level Boston Center
09:50AM 44.8350 -74.4775 295° West 376 433 22,000  Level Boston Center
09:52AM 44.8833 -74.6500 292° West 380 437 22,000 -660 Level Montreal Center
09:53AM 44.8833 -74.7833 270° West 360 414 20,600 -1,620 Descending Montreal Center
09:54AM 44.8667 -74.9333 261° West 340 391 18,800 -2,040 Descending Montreal Center
09:55AM 44.8833 -75.0667 280° West 350 403 16,600 -2,040 Descending Montreal Center
09:56AM 44.9000 -75.1833 281° West 360 414 14,800 -1,920 Descending Montreal Center
09:57AM 44.9333 -75.3333 287° West 360 414 12,800 -1,980 Descending Montreal Center
09:58AM 45.0000 -75.4167 319° Northwest 360 414 10,900 -1,680 Descending Montreal Center
09:59AM 45.0333 -75.5333 292° West 320 368 9,500 -1,440 Descending Montreal Center
10:00AM 45.0667 -75.6333 295° West 250 288 8,100 -960 Descending Montreal Center
10:01AM 45.0833 -75.7333 283° West 240 276 7,600 -720 Descending Montreal Center
10:02AM 45.1167 -75.8000 305° West 240 276 6,700 -1,140 Descending Montreal Center
10:03AM 45.1167 -75.9167 270° West 250 288 5,400 -1,080 Descending Montreal Center
10:04AM 45.1667 -75.9500 335° Northwest 220 253 4,600 -720 Descending Montreal Center
10:05AM 45.2000 -75.9000 47° Northeast 180 207 4,000 -780 Descending Montreal Center
10:06AM 45.2167 -75.8333 70° East 170 196 3,100 -900 Descending Montreal Center
10:07AM 45.2500 -75.7833 47° Northeast 150 173 2,200 -780 Descending Montreal Center
10:08AM 45.2667 -75.7333 65° Northeast 120 138 1,600 -600 Descending Montreal Center
10:09AM 45.2833 -75.7000 55° Northeast 120 138 1,000 -600 Descending Montreal Center
10:10AM 45.3000 -75.6667 55° Northeast 110 127 400 -600 Descending Montreal Center